Time;durP1;ratioP1;P1;durP2;ratioP2;P2;SDS_P1;SDS_P2;PMS_P1;PMS_P2;Temp;Humidity;BMP_temperature;BMP_pressure;BME280_temperature;BME280_humidity;BME280_pressure;Samples;Min_cycle;Max_cycle;Signal;HPM_P1;HPM_P2
2021/06/22 00:01:12;;;;;;;22.48;4.55;;;;;;;;;;5053384;28;20021;-64
2021/06/22 00:03:37;;;;;;;21.33;4.85;;;;;;;;;;5056448;28;20156;-65
2021/06/22 00:06:04;;;;;;;14.93;3.72;;;;;;;;;;5054601;28;20043;-65
2021/06/22 00:08:32;;;;;;;15.63;3.75;;;;;;;;;;5054452;28;20020;-65
2021/06/22 00:10:57;;;;;;;21.05;3.65;;;;;;;;;;5055187;28;20138;-64
2021/06/22 00:13:23;;;;;;;16.40;3.65;;;;;;;;;;5055109;28;20058;-65
2021/06/22 00:15:49;;;;;;;11.05;3.20;;;;;;;;;;5054713;28;20020;-66
2021/06/22 00:18:15;;;;;;;18.58;4.20;;;;;;;;;;5054935;28;20070;-65
2021/06/22 00:20:41;;;;;;;9.05;3.67;;;;;;;;;;5054477;28;20400;-65
2021/06/22 00:23:07;;;;;;;17.13;3.47;;;;;;;;;;5054623;28;20032;-65
2021/06/22 00:25:32;;;;;;;27.30;4.20;;;;;;;;;;5043717;28;20317;-64
2021/06/22 00:27:58;;;;;;;16.88;4.90;;;;;;;;;;5071437;28;20494;-64
2021/06/22 00:30:24;;;;;;;18.70;5.00;;;;;;;;;;5059056;28;20402;-65
2021/06/22 00:32:49;;;;;;;16.08;5.78;;;;;;;;;;5057913;28;20020;-65
2021/06/22 00:35:16;;;;;;;36.28;7.97;;;;;;;;;;5055156;28;20030;-66
2021/06/22 00:37:43;;;;;;;28.77;7.50;;;;;;;;;;5057792;28;20054;-65
2021/06/22 00:40:10;;;;;;;27.48;8.82;;;;;;;;;;5070961;28;20307;-67
2021/06/22 00:42:35;;;;;;;25.88;8.30;;;;;;;;;;5062340;28;20059;-65
2021/06/22 00:45:01;;;;;;;26.98;8.30;;;;;;;;;;5053991;28;20115;-66
2021/06/22 00:47:28;;;;;;;40.20;10.93;;;;;;;;;;5055521;28;20132;-65
2021/06/22 00:49:54;;;;;;;41.85;10.00;;;;;;;;;;5049857;28;20721;-65
2021/06/22 00:52:20;;;;;;;29.77;11.00;;;;;;;;;;5052774;28;20081;-66
2021/06/22 00:54:46;;;;;;;33.38;10.43;;;;;;;;;;5068373;28;20094;-65
2021/06/22 00:57:17;;;;;;;46.38;12.57;;;;;;;;;;5055347;28;20032;-65
2021/06/22 00:59:43;;;;;;;47.40;11.35;;;;;;;;;;5054330;28;20130;-64
2021/06/22 01:02:09;;;;;;;49.08;12.40;;;;;;;;;;5054945;28;20052;-63
2021/06/22 01:04:35;;;;;;;38.88;11.35;;;;;;;;;;5055008;28;20092;-65
2021/06/22 01:07:02;;;;;;;44.63;12.40;;;;;;;;;;5057872;28;20573;-64
2021/06/22 01:09:28;;;;;;;47.03;12.98;;;;;;;;;;5054982;28;20114;-64
2021/06/22 01:11:57;;;;;;;41.15;11.85;;;;;;;;;;5060471;28;20107;-65
2021/06/22 01:14:23;;;;;;;51.65;15.10;;;;;;;;;;5040370;28;20020;-64
2021/06/22 01:16:49;;;;;;;51.33;14.32;;;;;;;;;;5056718;28;20039;-64
2021/06/22 01:19:15;;;;;;;46.17;13.63;;;;;;;;;;5056659;28;20101;-65
2021/06/22 01:21:41;;;;;;;54.13;13.35;;;;;;;;;;5071429;27;20130;-65
2021/06/22 01:24:06;;;;;;;45.28;13.30;;;;;;;;;;5056964;28;20433;-64
2021/06/22 01:26:35;;;;;;;41.08;12.13;;;;;;;;;;5056342;28;20055;-66
2021/06/22 01:29:05;;;;;;;46.60;13.68;;;;;;;;;;5054986;28;20036;-64
2021/06/22 01:31:31;;;;;;;49.63;13.48;;;;;;;;;;5066667;28;20032;-62
2021/06/22 01:33:56;;;;;;;47.92;13.65;;;;;;;;;;5074346;27;20040;-64
2021/06/22 01:36:22;;;;;;;48.67;13.63;;;;;;;;;;5057297;28;20049;-65
2021/06/22 01:38:49;;;;;;;59.53;13.30;;;;;;;;;;5047605;28;20066;-65
2021/06/22 01:41:15;;;;;;;48.63;13.25;;;;;;;;;;5058181;28;20581;-65
2021/06/22 01:43:43;;;;;;;62.60;13.57;;;;;;;;;;5060088;28;20044;-64
2021/06/22 01:46:11;;;;;;;62.15;14.00;;;;;;;;;;5061012;28;20040;-65
2021/06/22 01:48:39;;;;;;;49.00;13.30;;;;;;;;;;5059908;28;20024;-64
2021/06/22 01:51:04;;;;;;;50.25;13.27;;;;;;;;;;5056798;28;20024;-64
2021/06/22 01:53:30;;;;;;;55.35;14.02;;;;;;;;;;5058636;28;20021;-65
2021/06/22 01:55:56;;;;;;;48.53;13.27;;;;;;;;;;5057468;28;21347;-65
2021/06/22 01:58:24;;;;;;;67.35;15.93;;;;;;;;;;5043680;28;20036;-66
2021/06/22 02:00:53;;;;;;;57.63;15.05;;;;;;;;;;5058606;28;20042;-64
2021/06/22 02:03:20;;;;;;;49.30;13.85;;;;;;;;;;5058054;28;20029;-64
2021/06/22 02:05:46;;;;;;;48.70;14.18;;;;;;;;;;5059105;28;20031;-66
2021/06/22 02:08:13;;;;;;;57.13;14.20;;;;;;;;;;5060364;28;20353;-65
2021/06/22 02:10:39;;;;;;;54.95;13.55;;;;;;;;;;5057253;28;20070;-64
2021/06/22 02:13:05;;;;;;;57.92;15.85;;;;;;;;;;5060149;28;20031;-65
2021/06/22 02:15:31;;;;;;;58.30;14.68;;;;;;;;;;5060801;28;20028;-65
2021/06/22 02:17:57;;;;;;;56.90;16.05;;;;;;;;;;5055588;28;20044;-66
2021/06/22 02:20:23;;;;;;;66.38;15.73;;;;;;;;;;5058168;28;20048;-64
2021/06/22 02:22:48;;;;;;;65.78;15.82;;;;;;;;;;5063133;28;20129;-65
2021/06/22 02:25:17;;;;;;;56.38;14.30;;;;;;;;;;5058641;28;20043;-64
2021/06/22 02:27:43;;;;;;;68.13;15.13;;;;;;;;;;5057379;28;20032;-64
2021/06/22 02:30:12;;;;;;;52.00;14.80;;;;;;;;;;5057850;28;20020;-63
2021/06/22 02:32:40;;;;;;;61.28;15.35;;;;;;;;;;5061550;28;20039;-65
2021/06/22 02:35:07;;;;;;;63.13;15.82;;;;;;;;;;5054843;28;20393;-65
2021/06/22 02:37:33;;;;;;;58.13;13.68;;;;;;;;;;5055559;28;20025;-65
2021/06/22 02:39:59;;;;;;;52.00;14.10;;;;;;;;;;5053682;28;20098;-64
2021/06/22 02:42:24;;;;;;;55.10;14.27;;;;;;;;;;5055585;28;20430;-65
2021/06/22 02:44:50;;;;;;;53.20;12.82;;;;;;;;;;5058425;28;20123;-65
2021/06/22 02:47:18;;;;;;;42.72;13.93;;;;;;;;;;5055631;28;20032;-65
2021/06/22 02:49:46;;;;;;;63.95;14.02;;;;;;;;;;5055763;28;20674;-65
2021/06/22 02:52:11;;;;;;;54.50;13.82;;;;;;;;;;5057166;28;20039;-62
2021/06/22 02:54:40;;;;;;;38.97;12.85;;;;;;;;;;5058317;28;20419;-65
2021/06/22 02:57:06;;;;;;;65.40;13.35;;;;;;;;;;5051063;28;20028;-65
2021/06/22 02:59:33;;;;;;;50.25;13.02;;;;;;;;;;5056404;28;20028;-63
2021/06/22 03:01:58;;;;;;;52.13;13.05;;;;;;;;;;5059981;28;20067;-64
2021/06/22 03:04:24;;;;;;;44.03;12.65;;;;;;;;;;5056459;28;20613;-64
2021/06/22 03:06:49;;;;;;;46.30;12.85;;;;;;;;;;5058295;28;20117;-64
2021/06/22 03:09:15;;;;;;;48.65;13.10;;;;;;;;;;5057036;28;20037;-64
2021/06/22 03:11:41;;;;;;;49.10;13.63;;;;;;;;;;5054860;28;20025;-65
2021/06/22 03:14:07;;;;;;;49.25;12.57;;;;;;;;;;5057749;28;20486;-64
2021/06/22 03:16:32;;;;;;;58.72;12.10;;;;;;;;;;5057816;28;20039;-64
2021/06/22 03:18:58;;;;;;;60.33;12.25;;;;;;;;;;5072116;27;20032;-63
2021/06/22 03:21:23;;;;;;;50.42;12.68;;;;;;;;;;5055363;28;20146;-64
2021/06/22 03:23:49;;;;;;;51.30;13.30;;;;;;;;;;5055827;28;20093;-63
2021/06/22 03:26:16;;;;;;;66.97;13.93;;;;;;;;;;5055739;28;20042;-64
2021/06/22 03:28:42;;;;;;;51.42;13.00;;;;;;;;;;5057806;28;20025;-64
2021/06/22 03:31:07;;;;;;;57.88;12.73;;;;;;;;;;5071054;28;20031;-64
2021/06/22 03:33:33;;;;;;;42.90;12.45;;;;;;;;;;5059346;28;20058;-64
2021/06/22 03:35:58;;;;;;;44.05;11.75;;;;;;;;;;5038853;28;20037;-63
2021/06/22 03:38:25;;;;;;;42.53;11.77;;;;;;;;;;5055567;28;20479;-62
2021/06/22 03:40:51;;;;;;;39.65;12.50;;;;;;;;;;5056171;28;20031;-63
2021/06/22 03:43:16;;;;;;;37.58;11.02;;;;;;;;;;5043386;28;20068;-64
2021/06/22 03:45:42;;;;;;;42.95;12.50;;;;;;;;;;5070233;27;20155;-64
2021/06/22 03:48:07;;;;;;;48.08;12.50;;;;;;;;;;5041939;28;20032;-64
2021/06/22 03:50:33;;;;;;;38.55;11.00;;;;;;;;;;5058169;28;20028;-65
2021/06/22 03:52:59;;;;;;;40.53;11.88;;;;;;;;;;5054679;28;20051;-64
2021/06/22 03:55:28;;;;;;;42.80;12.82;;;;;;;;;;5053468;28;20047;-64
2021/06/22 03:57:55;;;;;;;30.73;10.55;;;;;;;;;;5038347;28;20040;-64
2021/06/22 04:00:23;;;;;;;39.15;10.52;;;;;;;;;;5056842;28;21596;-64
2021/06/22 04:02:49;;;;;;;32.00;12.02;;;;;;;;;;5055963;28;20498;-64
2021/06/22 04:05:14;;;;;;;34.83;11.07;;;;;;;;;;5061033;28;20048;-64
2021/06/22 04:07:42;;;;;;;31.65;11.73;;;;;;;;;;5053497;28;20055;-65
2021/06/22 04:10:08;;;;;;;31.83;11.57;;;;;;;;;;5054721;28;20570;-64
2021/06/22 04:12:34;;;;;;;26.08;10.02;;;;;;;;;;5039438;28;20032;-64
2021/06/22 04:15:00;;;;;;;38.38;12.60;;;;;;;;;;5054458;28;20437;-65
2021/06/22 04:17:26;;;;;;;44.35;12.82;;;;;;;;;;5056572;28;20038;-64
2021/06/22 04:19:52;;;;;;;47.88;12.93;;;;;;;;;;5054172;28;20052;-64
2021/06/22 04:22:20;;;;;;;42.38;13.18;;;;;;;;;;5055668;28;20036;-63
2021/06/22 04:24:48;;;;;;;42.45;12.57;;;;;;;;;;5068785;28;20128;-64
2021/06/22 04:27:16;;;;;;;41.75;11.15;;;;;;;;;;5058214;28;20032;-64
2021/06/22 04:29:44;;;;;;;43.22;11.40;;;;;;;;;;5054073;28;20118;-64
2021/06/22 04:32:09;;;;;;;65.03;20.15;;;;;;;;;;5056831;28;20403;-65
2021/06/22 04:34:35;;;;;;;55.35;17.88;;;;;;;;;;5062820;28;20033;-63
2021/06/22 04:37:02;;;;;;;31.95;11.45;;;;;;;;;;5059273;28;20050;-63
2021/06/22 04:39:31;;;;;;;42.65;15.27;;;;;;;;;;5052315;28;20052;-65
2021/06/22 04:41:57;;;;;;;72.18;24.38;;;;;;;;;;5043462;28;20498;-64
2021/06/22 04:44:23;;;;;;;47.97;17.20;;;;;;;;;;5054827;28;20028;-65
2021/06/22 04:46:51;;;;;;;25.75;10.45;;;;;;;;;;5055828;28;20434;-63
2021/06/22 04:49:19;;;;;;;27.25;10.85;;;;;;;;;;5069393;28;20032;-65
2021/06/22 04:51:47;;;;;;;27.55;10.77;;;;;;;;;;5055188;28;20039;-64
2021/06/22 04:54:14;;;;;;;45.55;12.38;;;;;;;;;;5070083;28;20105;-64
2021/06/22 04:56:42;;;;;;;23.90;11.65;;;;;;;;;;5042907;28;20114;-64
2021/06/22 04:59:07;;;;;;;25.05;11.00;;;;;;;;;;5057151;28;20123;-64
2021/06/22 05:01:32;;;;;;;27.40;11.02;;;;;;;;;;5052092;28;20073;-64
2021/06/22 05:04:02;;;;;;;27.42;10.85;;;;;;;;;;5053854;28;20066;-65
2021/06/22 05:06:29;;;;;;;23.63;10.60;;;;;;;;;;5052806;28;20016;-64
2021/06/22 05:08:55;;;;;;;16.67;10.07;;;;;;;;;;5056422;28;20075;-64
2021/06/22 05:11:23;;;;;;;17.83;8.63;;;;;;;;;;5054995;28;20036;-65
2021/06/22 05:13:48;;;;;;;18.00;8.52;;;;;;;;;;5040614;28;20637;-65
2021/06/22 05:16:19;;;;;;;17.67;8.88;;;;;;;;;;5053613;28;20037;-65
2021/06/22 05:18:48;;;;;;;15.85;7.90;;;;;;;;;;5055010;28;20044;-64
2021/06/22 05:21:14;;;;;;;13.95;8.07;;;;;;;;;;5071136;28;20071;-65
2021/06/22 05:23:39;;;;;;;13.57;7.22;;;;;;;;;;5038689;28;21081;-66
2021/06/22 05:26:08;;;;;;;12.52;7.50;;;;;;;;;;5069635;28;20016;-64
2021/06/22 05:28:36;;;;;;;19.40;7.05;;;;;;;;;;5053200;28;20135;-64
2021/06/22 05:31:04;;;;;;;13.68;6.60;;;;;;;;;;5042382;28;20047;-64
2021/06/22 05:33:32;;;;;;;19.63;7.10;;;;;;;;;;5057272;28;20039;-65
2021/06/22 05:35:58;;;;;;;14.93;5.82;;;;;;;;;;5052739;28;20101;-65
2021/06/22 05:38:26;;;;;;;10.20;5.75;;;;;;;;;;5053116;28;20048;-65
2021/06/22 05:40:51;;;;;;;12.85;4.82;;;;;;;;;;5053870;28;20021;-65
2021/06/22 05:43:17;;;;;;;11.18;4.65;;;;;;;;;;5052632;28;20035;-64
2021/06/22 05:45:43;;;;;;;10.32;5.38;;;;;;;;;;5053644;28;20058;-64
2021/06/22 05:48:08;;;;;;;9.95;4.47;;;;;;;;;;5057193;28;20076;-64
2021/06/22 05:50:34;;;;;;;7.68;3.97;;;;;;;;;;5044537;28;20056;-64
2021/06/22 05:53:05;;;;;;;7.18;3.63;;;;;;;;;;5055583;28;20036;-65
2021/06/22 05:55:33;;;;;;;8.13;3.50;;;;;;;;;;5029047;28;20138;-64
2021/06/22 05:58:01;;;;;;;4.53;3.38;;;;;;;;;;5074070;28;20098;-63
2021/06/22 06:00:28;;;;;;;6.97;3.80;;;;;;;;;;5057669;28;20119;-64
2021/06/22 06:02:54;;;;;;;8.55;3.50;;;;;;;;;;5054745;28;20112;-64
2021/06/22 06:05:20;;;;;;;7.75;2.95;;;;;;;;;;5054540;28;20547;-65
2021/06/22 06:07:46;;;;;;;9.80;2.95;;;;;;;;;;5055525;28;20065;-64
2021/06/22 06:10:12;;;;;;;6.43;2.65;;;;;;;;;;5056358;28;20031;-64
2021/06/22 06:12:37;;;;;;;6.43;2.67;;;;;;;;;;5057840;28;20043;-64
2021/06/22 06:15:04;;;;;;;7.38;2.65;;;;;;;;;;5062418;28;20031;-64
2021/06/22 06:17:30;;;;;;;6.57;2.28;;;;;;;;;;5057027;28;20020;-64
2021/06/22 06:19:59;;;;;;;9.23;2.22;;;;;;;;;;5056250;28;20051;-64
2021/06/22 06:22:24;;;;;;;5.85;1.85;;;;;;;;;;5058860;28;20455;-64
2021/06/22 06:24:52;;;;;;;4.43;1.75;;;;;;;;;;5062787;28;20053;-63
2021/06/22 06:27:21;;;;;;;8.43;2.15;;;;;;;;;;5056033;28;20032;-64
2021/06/22 06:30:00;;;;;;;2.90;1.45;;;;;;;;;;5055072;28;20066;-65
2021/06/22 06:32:25;;;;;;;5.70;1.98;;;;;;;;;;5061554;28;20147;-65
2021/06/22 06:34:51;;;;;;;10.77;2.17;;;;;;;;;;5057861;28;20012;-64
2021/06/22 06:37:17;;;;;;;7.97;2.03;;;;;;;;;;5057902;28;20028;-66
2021/06/22 06:39:43;;;;;;;7.32;1.95;;;;;;;;;;5059774;28;20032;-65
2021/06/22 06:42:09;;;;;;;2.65;1.63;;;;;;;;;;5056752;28;20589;-66
2021/06/22 06:44:35;;;;;;;7.85;1.60;;;;;;;;;;5072199;28;20032;-63
2021/06/22 06:47:01;;;;;;;7.70;1.58;;;;;;;;;;5057990;28;20039;-63
2021/06/22 06:49:29;;;;;;;5.93;1.67;;;;;;;;;;5056385;28;21610;-64
2021/06/22 06:51:55;;;;;;;5.65;1.50;;;;;;;;;;5053989;28;20471;-64
2021/06/22 06:54:23;;;;;;;5.40;1.45;;;;;;;;;;5072984;28;20393;-63
2021/06/22 06:56:56;;;;;;;10.00;1.75;;;;;;;;;;5056622;28;20078;-63
2021/06/22 06:59:23;;;;;;;6.65;1.73;;;;;;;;;;5058012;28;21913;-65
2021/06/22 07:01:51;;;;;;;6.47;1.88;;;;;;;;;;5042180;28;20122;-63
2021/06/22 07:04:17;;;;;;;5.35;1.67;;;;;;;;;;5059102;28;20051;-63
2021/06/22 07:06:45;;;;;;;2.80;1.35;;;;;;;;;;5062130;28;20031;-62
2021/06/22 07:09:12;;;;;;;4.43;1.30;;;;;;;;;;5044102;28;20035;-63
2021/06/22 07:11:40;;;;;;;9.70;1.33;;;;;;;;;;5043026;28;20797;-64
2021/06/22 07:14:14;;;;;;;6.45;1.13;;;;;;;;;;5055104;28;20020;-64
2021/06/22 07:16:40;;;;;;;4.82;1.75;;;;;;;;;;5056196;28;20037;-65
2021/06/22 07:19:07;;;;;;;6.07;1.83;;;;;;;;;;5072819;28;20035;-63
2021/06/22 07:21:36;;;;;;;7.82;2.05;;;;;;;;;;5054309;28;20094;-63
2021/06/22 07:24:01;;;;;;;3.53;1.58;;;;;;;;;;5045208;28;20036;-64
2021/06/22 07:26:29;;;;;;;3.53;1.27;;;;;;;;;;5069328;28;20039;-64
2021/06/22 07:28:57;;;;;;;7.47;1.92;;;;;;;;;;5057913;28;20032;-64
2021/06/22 07:31:25;;;;;;;8.98;2.42;;;;;;;;;;5045229;28;20196;-64
2021/06/22 07:33:51;;;;;;;7.47;2.10;;;;;;;;;;5042096;28;20036;-65
2021/06/22 07:36:19;;;;;;;7.60;2.30;;;;;;;;;;5044644;28;20400;-67
2021/06/22 07:38:48;;;;;;;3.90;1.50;;;;;;;;;;5056105;28;20039;-64
2021/06/22 07:41:17;;;;;;;6.22;1.90;;;;;;;;;;5057275;28;20044;-63
2021/06/22 07:43:43;;;;;;;11.32;1.38;;;;;;;;;;5061930;28;20027;-63
2021/06/22 07:46:09;;;;;;;7.10;1.55;;;;;;;;;;5056514;28;20189;-65
2021/06/22 07:48:39;;;;;;;7.82;1.63;;;;;;;;;;5054630;28;20047;-64
2021/06/22 07:51:10;;;;;;;4.03;1.35;;;;;;;;;;5055666;28;21034;-64
2021/06/22 07:53:38;;;;;;;4.05;1.20;;;;;;;;;;5041812;28;20451;-64
2021/06/22 07:56:06;;;;;;;6.18;1.30;;;;;;;;;;5053025;28;20024;-67
2021/06/22 07:58:32;;;;;;;4.35;1.40;;;;;;;;;;5053803;28;20988;-66
2021/06/22 08:00:58;;;;;;;4.38;1.30;;;;;;;;;;5054733;28;20028;-66
2021/06/22 08:03:27;;;;;;;4.70;1.40;;;;;;;;;;5059014;28;20032;-67
2021/06/22 08:05:53;;;;;;;3.08;0.98;;;;;;;;;;5054935;28;20848;-66
2021/06/22 08:08:20;;;;;;;1.83;0.98;;;;;;;;;;5057389;28;20034;-67
2021/06/22 08:10:46;;;;;;;5.80;1.30;;;;;;;;;;5056437;28;20404;-67
2021/06/22 08:13:14;;;;;;;4.53;1.25;;;;;;;;;;5072582;28;20702;-66
2021/06/22 08:15:43;;;;;;;4.20;1.20;;;;;;;;;;5056852;28;20051;-67
2021/06/22 08:18:09;;;;;;;5.18;1.33;;;;;;;;;;5054897;28;20673;-67
2021/06/22 08:20:36;;;;;;;6.10;1.25;;;;;;;;;;5054294;28;20135;-66
2021/06/22 08:23:04;;;;;;;8.07;1.75;;;;;;;;;;5057117;28;20364;-66
2021/06/22 08:25:30;;;;;;;6.97;1.45;;;;;;;;;;5053630;28;20039;-65
2021/06/22 08:27:55;;;;;;;6.68;1.60;;;;;;;;;;5071146;28;20034;-66
2021/06/22 08:30:25;;;;;;;5.72;1.30;;;;;;;;;;5063482;28;20036;-66
2021/06/22 08:32:51;;;;;;;4.97;1.60;;;;;;;;;;5056644;28;20028;-66
2021/06/22 08:35:17;;;;;;;3.42;1.13;;;;;;;;;;5056872;28;20383;-66
2021/06/22 08:37:44;;;;;;;4.00;1.08;;;;;;;;;;5054019;28;20372;-66
2021/06/22 08:40:13;;;;;;;2.97;1.27;;;;;;;;;;5055052;28;20032;-66
2021/06/22 08:42:39;;;;;;;3.88;1.33;;;;;;;;;;5040002;28;20019;-67
2021/06/22 08:45:13;;;;;;;10.85;1.50;;;;;;;;;;5069062;28;20123;-66
2021/06/22 08:47:39;;;;;;;4.35;1.20;;;;;;;;;;5055677;28;20039;-66
2021/06/22 08:50:05;;;;;;;4.07;1.00;;;;;;;;;;5045306;28;20101;-65
2021/06/22 08:52:36;;;;;;;6.00;1.58;;;;;;;;;;5039004;28;20028;-66
2021/06/22 08:55:03;;;;;;;6.68;1.50;;;;;;;;;;5057811;28;20119;-68
2021/06/22 08:57:29;;;;;;;7.82;1.45;;;;;;;;;;5052480;28;20020;-66
2021/06/22 08:59:57;;;;;;;11.57;2.10;;;;;;;;;;5066144;28;20041;-67
2021/06/22 09:02:27;;;;;;;3.33;1.35;;;;;;;;;;5057084;28;20850;-67
2021/06/22 09:04:55;;;;;;;5.70;2.08;;;;;;;;;;5054527;28;20562;-68
2021/06/22 09:07:39;;;;;;;9.32;2.15;;;;;;;;;;5053674;28;20658;-64
2021/06/22 09:10:06;;;;;;;4.68;1.90;;;;;;;;;;5068454;28;20105;-66
2021/06/22 09:12:33;;;;;;;6.97;1.80;;;;;;;;;;5059463;28;20491;-66
2021/06/22 09:15:14;;;;;;;3.03;1.40;;;;;;;;;;5052347;28;20036;-66
2021/06/22 09:17:45;;;;;;;7.43;1.60;;;;;;;;;;5052260;28;20036;-66
2021/06/22 09:20:11;;;;;;;4.68;1.63;;;;;;;;;;5068299;28;20060;-67
2021/06/22 09:22:37;;;;;;;7.90;1.73;;;;;;;;;;5053289;28;20039;-65
2021/06/22 09:25:09;;;;;;;5.28;1.70;;;;;;;;;;5051453;28;20218;-68
2021/06/22 09:27:47;;;;;;;5.28;1.60;;;;;;;;;;5055311;28;20687;-67
2021/06/22 09:30:15;;;;;;;9.90;1.73;;;;;;;;;;5074554;28;20073;-66
2021/06/22 09:32:41;;;;;;;10.70;1.80;;;;;;;;;;5046673;28;20111;-66
2021/06/22 09:35:19;;;;;;;8.65;1.52;;;;;;;;;;5072597;28;20036;-67
2021/06/22 09:37:48;;;;;;;4.97;1.40;;;;;;;;;;5058959;28;20036;-66
2021/06/22 09:40:26;;;;;;;5.68;1.92;;;;;;;;;;5063628;28;20083;-67
2021/06/22 09:42:58;;;;;;;9.85;1.90;;;;;;;;;;5073154;28;20708;-68
2021/06/22 09:45:24;;;;;;;7.95;2.03;;;;;;;;;;5058698;28;20777;-67
2021/06/22 09:47:53;;;;;;;5.85;1.65;;;;;;;;;;5056119;28;20028;-65
2021/06/22 09:50:33;;;;;;;6.20;1.70;;;;;;;;;;5058437;28;20038;-66
2021/06/22 09:53:18;;;;;;;8.57;1.88;;;;;;;;;;5054127;28;20680;-66
2021/06/22 09:55:46;;;;;;;6.00;2.05;;;;;;;;;;5059418;28;20083;-66
2021/06/22 09:58:13;;;;;;;4.47;1.58;;;;;;;;;;5049260;28;20012;-66
2021/06/22 10:00:43;;;;;;;10.25;1.75;;;;;;;;;;5051514;28;20170;-65
2021/06/22 10:03:12;;;;;;;9.98;1.60;;;;;;;;;;5036639;28;21835;-66
2021/06/22 10:05:50;;;;;;;4.60;2.15;;;;;;;;;;5050096;28;22044;-66
2021/06/22 10:08:17;;;;;;;4.85;2.00;;;;;;;;;;5074709;28;20900;-65
2021/06/22 10:10:46;;;;;;;8.90;1.85;;;;;;;;;;5056434;28;20038;-65
2021/06/22 10:13:32;;;;;;;4.60;1.70;;;;;;;;;;5025316;28;20028;-65
2021/06/22 10:16:17;;;;;;;6.13;1.40;;;;;;;;;;5072838;27;20036;-65
2021/06/22 10:18:45;;;;;;;6.82;2.00;;;;;;;;;;5057305;28;20111;-65
2021/06/22 10:21:13;;;;;;;6.82;1.80;;;;;;;;;;5055362;28;20149;-65
2021/06/22 10:23:39;;;;;;;8.82;2.20;;;;;;;;;;5043049;28;20037;-67
2021/06/22 10:26:07;;;;;;;4.75;2.20;;;;;;;;;;5072054;28;20029;-66
2021/06/22 10:28:34;;;;;;;8.38;2.15;;;;;;;;;;5034255;28;20032;-66
2021/06/22 10:31:00;;;;;;;5.40;2.20;;;;;;;;;;5049302;28;20034;-65
2021/06/22 10:33:25;;;;;;;6.90;2.40;;;;;;;;;;5053074;28;20033;-66
2021/06/22 10:35:56;;;;;;;6.13;1.88;;;;;;;;;;5047848;28;20113;-65
2021/06/22 10:38:26;;;;;;;6.47;2.20;;;;;;;;;;5047164;28;20044;-66
2021/06/22 10:40:55;;;;;;;11.55;2.50;;;;;;;;;;5050820;28;20036;-65
2021/06/22 10:43:41;;;;;;;3.28;2.25;;;;;;;;;;5051551;28;20039;-66
2021/06/22 10:46:15;;;;;;;6.55;2.30;;;;;;;;;;5063701;28;20031;-65
2021/06/22 10:48:46;;;;;;;3.67;1.85;;;;;;;;;;5048104;28;20055;-65
2021/06/22 10:51:38;;;;;;;6.38;2.30;;;;;;;;;;5066235;28;20036;-66
2021/06/22 10:54:05;;;;;;;5.45;2.53;;;;;;;;;;5037964;28;20044;-66
2021/06/22 10:56:32;;;;;;;6.03;1.98;;;;;;;;;;5034333;28;20032;-67
2021/06/22 10:59:20;;;;;;;5.18;2.42;;;;;;;;;;5035717;28;20037;-65
2021/06/22 11:01:55;;;;;;;8.73;2.65;;;;;;;;;;5033586;28;20999;-65
2021/06/22 11:04:22;;;;;;;4.43;2.28;;;;;;;;;;5047505;28;20024;-66
2021/06/22 11:07:08;;;;;;;6.03;1.90;;;;;;;;;;5052203;28;20115;-64
2021/06/22 11:09:36;;;;;;;5.75;2.20;;;;;;;;;;5048566;28;20032;-65
2021/06/22 11:12:19;;;;;;;4.13;2.40;;;;;;;;;;5063272;28;20119;-65
2021/06/22 11:15:00;;;;;;;3.75;2.10;;;;;;;;;;5033093;28;20032;-66
2021/06/22 11:17:44;;;;;;;6.97;2.25;;;;;;;;;;5060899;28;20024;-67
2021/06/22 11:20:17;;;;;;;4.13;1.80;;;;;;;;;;5052037;28;20052;-66
2021/06/22 11:23:04;;;;;;;4.13;2.08;;;;;;;;;;5037379;28;20028;-66
2021/06/22 11:25:29;;;;;;;;;;;;;;;;;;5049293;28;20503;-66
2021/06/22 11:28:04;;;;;;;3.33;2.15;;;;;;;;;;5052047;28;19916;-66
2021/06/22 11:30:48;;;;;;;5.60;2.22;;;;;;;;;;5050582;28;20033;-65
2021/06/22 11:33:29;;;;;;;2.40;1.80;;;;;;;;;;5044909;28;20071;-67
2021/06/22 11:36:30;;;;;;;4.47;2.30;;;;;;;;;;5059303;28;20794;-67
2021/06/22 11:39:11;;;;;;;5.10;2.38;;;;;;;;;;4969058;28;20033;-68
2021/06/22 11:41:37;;;;;;;4.20;2.20;;;;;;;;;;5037807;28;20040;-67
2021/06/22 11:44:08;;;;;;;4.35;2.35;;;;;;;;;;5044258;28;20085;-66
2021/06/22 11:46:36;;;;;;;3.38;2.03;;;;;;;;;;5049680;28;20035;-67
2021/06/22 11:49:03;;;;;;;4.30;2.50;;;;;;;;;;5051781;28;20039;-66
2021/06/22 11:51:49;;;;;;;6.18;2.47;;;;;;;;;;5051778;28;20724;-68
2021/06/22 11:54:15;;;;;;;5.93;2.33;;;;;;;;;;5050465;28;20141;-67
2021/06/22 11:56:47;;;;;;;6.18;2.20;;;;;;;;;;5047760;28;20032;-67
2021/06/22 11:59:13;;;;;;;6.60;2.10;;;;;;;;;;5070934;28;20090;-67
2021/06/22 12:01:48;;;;;;;5.18;2.05;;;;;;;;;;5054369;28;20391;-67
2021/06/22 12:04:19;;;;;;;5.38;1.65;;;;;;;;;;5054629;28;20036;-67
2021/06/22 12:06:53;;;;;;;3.15;1.70;;;;;;;;;;5070792;28;20024;-67
2021/06/22 12:09:21;;;;;;;3.85;1.42;;;;;;;;;;5057284;28;20612;-67
2021/06/22 12:11:50;;;;;;;4.88;1.85;;;;;;;;;;5052243;28;20090;-67
2021/06/22 12:14:18;;;;;;;3.80;1.60;;;;;;;;;;5054967;28;20971;-67
2021/06/22 12:16:44;;;;;;;3.88;1.60;;;;;;;;;;5041377;28;20036;-67
2021/06/22 12:19:29;;;;;;;7.03;1.77;;;;;;;;;;5055175;28;20043;-68
2021/06/22 12:21:57;;;;;;;5.70;1.80;;;;;;;;;;5041710;28;20186;-67
2021/06/22 12:24:25;;;;;;;3.25;1.60;;;;;;;;;;5068766;28;20120;-67
2021/06/22 12:26:52;;;;;;;3.67;1.58;;;;;;;;;;5054035;28;20043;-66
2021/06/22 12:29:24;;;;;;;5.43;1.52;;;;;;;;;;5055429;28;20036;-67
2021/06/22 12:31:51;;;;;;;2.92;1.73;;;;;;;;;;5059694;28;20071;-67
2021/06/22 12:34:17;;;;;;;4.05;1.58;;;;;;;;;;5037902;28;20081;-66
2021/06/22 12:36:45;;;;;;;3.88;1.52;;;;;;;;;;5069134;28;20031;-67
2021/06/22 12:39:15;;;;;;;2.88;1.30;;;;;;;;;;5055301;28;20143;-64
2021/06/22 12:41:48;;;;;;;3.13;1.60;;;;;;;;;;5056245;28;20024;-65
2021/06/22 12:44:24;;;;;;;3.88;1.58;;;;;;;;;;5053823;28;20036;-65
2021/06/22 12:46:55;;;;;;;4.57;1.63;;;;;;;;;;5060115;28;20052;-64
2021/06/22 12:49:25;;;;;;;4.43;1.88;;;;;;;;;;5054268;28;20382;-66
2021/06/22 12:51:59;;;;;;;3.55;1.58;;;;;;;;;;5066252;28;20069;-65
2021/06/22 12:54:26;;;;;;;4.38;1.60;;;;;;;;;;5055360;28;20036;-66
2021/06/22 12:56:56;;;;;;;3.03;1.52;;;;;;;;;;5052868;28;20029;-65
2021/06/22 12:59:23;;;;;;;4.35;1.80;;;;;;;;;;5053682;28;20572;-65
2021/06/22 13:01:51;;;;;;;6.32;1.83;;;;;;;;;;5053549;28;20029;-64
2021/06/22 13:04:18;;;;;;;8.07;1.80;;;;;;;;;;5059951;28;20050;-64
2021/06/22 13:06:49;;;;;;;4.15;1.45;;;;;;;;;;5059229;28;20028;-64
2021/06/22 13:09:15;;;;;;;1.40;1.30;;;;;;;;;;5058903;28;20506;-64
2021/06/22 13:11:48;;;;;;;3.97;1.75;;;;;;;;;;5059193;28;20089;-65
2021/06/22 13:14:17;;;;;;;2.17;1.50;;;;;;;;;;5062898;28;20036;-64
2021/06/22 13:16:53;;;;;;;3.67;1.67;;;;;;;;;;5059591;28;20726;-63
2021/06/22 13:19:18;;;;;;;4.78;1.38;;;;;;;;;;5057242;28;20036;-65
2021/06/22 13:21:47;;;;;;;2.10;1.00;;;;;;;;;;5055731;28;20048;-63
2021/06/22 13:24:36;;;;;;;5.97;1.20;;;;;;;;;;5055899;28;20032;-64
2021/06/22 13:27:04;;;;;;;7.72;1.10;;;;;;;;;;5058858;28;20024;-65
2021/06/22 13:29:46;;;;;;;5.05;1.42;;;;;;;;;;5057050;28;20033;-63
2021/06/22 13:32:14;;;;;;;5.00;1.33;;;;;;;;;;5057001;28;21990;-63
2021/06/22 13:34:46;;;;;;;4.18;1.00;;;;;;;;;;5056987;28;20598;-66
2021/06/22 13:37:14;;;;;;;4.65;1.17;;;;;;;;;;5055988;28;20115;-65
2021/06/22 13:39:51;;;;;;;4.70;1.33;;;;;;;;;;5038979;28;20061;-64
2021/06/22 13:42:19;;;;;;;2.95;0.95;;;;;;;;;;5057819;28;20054;-64
2021/06/22 13:44:45;;;;;;;2.10;0.93;;;;;;;;;;5058484;28;20027;-64
2021/06/22 13:47:31;;;;;;;6.60;1.20;;;;;;;;;;5062241;28;20028;-64
2021/06/22 13:50:12;;;;;;;1.35;0.95;;;;;;;;;;5057017;28;20988;-65
2021/06/22 13:52:45;;;;;;;5.00;1.02;;;;;;;;;;5057465;28;20035;-65
2021/06/22 13:55:11;;;;;;;4.95;1.00;;;;;;;;;;5057747;28;20027;-64
2021/06/22 13:57:39;;;;;;;4.65;1.02;;;;;;;;;;5055734;28;20043;-64
2021/06/22 14:00:07;;;;;;;3.45;1.17;;;;;;;;;;5073804;27;20660;-64
2021/06/22 14:02:35;;;;;;;3.00;1.00;;;;;;;;;;5052886;28;20055;-64
2021/06/22 14:05:04;;;;;;;5.93;1.20;;;;;;;;;;5054045;28;20110;-64
2021/06/22 14:07:30;;;;;;;6.72;1.08;;;;;;;;;;5055920;28;20491;-65
2021/06/22 14:09:55;;;;;;;5.07;1.00;;;;;;;;;;5055993;28;20123;-64
2021/06/22 14:12:21;;;;;;;5.78;1.52;;;;;;;;;;5055870;28;20089;-63
2021/06/22 14:14:46;;;;;;;5.00;1.20;;;;;;;;;;5038733;28;20032;-64
2021/06/22 14:17:15;;;;;;;3.53;1.25;;;;;;;;;;5040179;28;20063;-64
2021/06/22 14:19:40;;;;;;;8.55;1.75;;;;;;;;;;5040689;28;20051;-64
2021/06/22 14:22:06;;;;;;;3.92;1.23;;;;;;;;;;5056332;28;20044;-63
2021/06/22 14:24:34;;;;;;;8.95;1.33;;;;;;;;;;5057191;28;20043;-65
2021/06/22 14:27:00;;;;;;;6.53;1.45;;;;;;;;;;5023501;28;21934;-65
2021/06/22 14:29:27;;;;;;;4.85;1.10;;;;;;;;;;5041314;28;20032;-65
2021/06/22 14:31:53;;;;;;;6.55;1.30;;;;;;;;;;5042043;28;20058;-64
2021/06/22 14:34:19;;;;;;;3.90;1.23;;;;;;;;;;5056961;28;20036;-63
2021/06/22 14:36:48;;;;;;;3.85;1.58;;;;;;;;;;5054946;28;20035;-63
2021/06/22 14:39:18;;;;;;;13.15;1.75;;;;;;;;;;5038983;28;20123;-63
2021/06/22 14:41:48;;;;;;;3.92;1.70;;;;;;;;;;5055386;28;20112;-64